Time;durP1;ratioP1;P1;durP2;ratioP2;P2;SDS_P1;SDS_P2;PMS_P1;PMS_P2;Temp;Humidity;BMP_temperature;BMP_pressure;BME280_temperature;BME280_humidity;BME280_pressure;Samples;Min_cycle;Max_cycle;Signal;HPM_P1;HPM_P2
2024/01/27 00:01:05;;;;;;;;;;;;;;;;;;2090307;28;19909;-79
2024/01/27 00:02:25;;;;;;;;;;;;;;;;;;2087197;28;20359;-79
2024/01/27 00:03:46;;;;;;;;;;;;;;;;;;2087739;28;19909;-79
2024/01/27 00:05:08;;;;;;;;;;;;;;;;;;2087705;28;19908;-79
2024/01/27 00:06:28;;;;;;;;;;;;;;;;;;2087710;28;19939;-79
2024/01/27 00:07:49;;;;;;;;;;;;;;;;;;2071168;28;19999;-79
2024/01/27 00:09:10;;;;;;;;;;;;;;;;;;2075896;28;20380;-79
2024/01/27 00:10:30;;;;;;;;;;;;;;;;;;2079695;28;19940;-79
2024/01/27 00:11:51;;;;;;;;;;;;;;;;;;2076679;28;19975;-78
2024/01/27 00:13:12;;;;;;;;;;;;;;;;;;2080043;28;19909;-79
2024/01/27 00:14:34;;;;;;;;;;;;;;;;;;2072161;28;19916;-79
2024/01/27 00:15:54;;;;;;;;;;;;;;;;;;2078881;28;19909;-80
2024/01/27 00:17:15;;;;;;;;;;;;;;;;;;2078730;28;19913;-79
2024/01/27 00:18:36;;;;;;;;;;;;;;;;;;2083707;28;19984;-79
2024/01/27 00:19:56;;;;;;;;;;;;;;;;;;2082604;28;19924;-79
2024/01/27 00:21:17;;;;;;;;;;;;;;;;;;2082700;28;20265;-79
2024/01/27 00:22:38;;;;;;;;;;;;;;;;;;2079466;28;19924;-80
2024/01/27 00:24:00;;;;;;;;;;;;;;;;;;2080010;28;19920;-79
2024/01/27 00:25:21;;;;;;;;;;;;;;;;;;2077965;28;20345;-79
2024/01/27 00:26:42;;;;;;;;;;;;;;;;;;2085896;28;19909;-79
2024/01/27 00:28:03;;;;;;;;;;;;;;;;;;2078245;28;19917;-79
2024/01/27 00:29:23;;;;;;;;;;;;;;;;;;2085533;28;19909;-79
2024/01/27 00:30:44;;;;;;;;;;;;;;;;;;2072640;28;20328;-79
2024/01/27 00:32:05;;;;;;;;;;;;;;;;;;2077484;28;19963;-78
2024/01/27 00:33:25;;;;;;;;;;;;;;;;;;2078680;28;19910;-79
2024/01/27 00:34:46;;;;;;;;;;;;;;;;;;2079015;28;19985;-79
2024/01/27 00:36:07;;;;;;;;;;;;;;;;;;2080118;28;19916;-79
2024/01/27 00:37:27;;;;;;;;;;;;;;;;;;2070205;28;19910;-78
2024/01/27 00:38:48;;;;;;;;;;;;;;;;;;2076618;28;19936;-79
2024/01/27 00:40:09;;;;;;;;;;;;;;;;;;2069856;28;20041;-79
2024/01/27 00:41:30;;;;;;;;;;;;;;;;;;2076757;28;19909;-79
2024/01/27 00:42:50;;;;;;;;;;;;;;;;;;2070537;28;19920;-80
2024/01/27 00:44:11;;;;;;;;;;;;;;;;;;2074013;28;20325;-80
2024/01/27 00:45:32;;;;;;;;;;;;;;;;;;2074078;28;20053;-79
2024/01/27 00:46:52;;;;;;;;;;;;;;;;;;2081605;28;19909;-80
2024/01/27 00:48:13;;;;;;;;;;;;;;;;;;2083602;28;20349;-79
2024/01/27 00:49:34;;;;;;;;;;;;;;;;;;2078290;28;20307;-79
2024/01/27 00:50:54;;;;;;;;;;;;;;;;;;2085155;28;19996;-79
2024/01/27 00:52:15;;;;;;;;;;;;;;;;;;2075350;28;19910;-77
2024/01/27 00:53:36;;;;;;;;;;;;;;;;;;2080059;28;19921;-78
2024/01/27 00:54:56;;;;;;;;;;;;;;;;;;2075179;28;20332;-77
2024/01/27 00:56:17;;;;;;;;;;;;;;;;;;2084811;28;19917;-75
2024/01/27 00:57:38;;;;;;;;;;;;;;;;;;2078840;28;20287;-75
2024/01/27 00:58:59;;;;;;;;;;;;;;;;;;2085125;28;20172;-75
2024/01/27 01:00:20;;;;;;;;;;;;;;;;;;2085906;28;19916;-77
2024/01/27 01:01:41;;;;;;;;;;;;;;;;;;2075219;28;20360;-77
2024/01/27 01:03:02;;;;;;;;;;;;;;;;;;2079109;28;19913;-76
2024/01/27 01:04:22;;;;;;;;;;;;;;;;;;2078907;28;19959;-77
2024/01/27 01:05:43;;;;;;;;;;;;;;;;;;2085293;28;19913;-76
2024/01/27 01:07:04;;;;;;;;;;;;;;;;;;2083148;28;19928;-77
2024/01/27 01:08:24;;;;;;;;;;;;;;;;;;2082387;28;20288;-76
2024/01/27 01:09:45;;;;;;;;;;;;;;;;;;2082940;28;20148;-77
2024/01/27 01:11:06;;;;;;;;;;;;;;;;;;2074922;28;19921;-76
2024/01/27 01:12:26;;;;;;;;;;;;;;;;;;2078369;28;20300;-77
2024/01/27 01:13:47;;;;;;;;;;;;;;;;;;2069118;28;19914;-76
2024/01/27 01:15:08;;;;;;;;;;;;;;;;;;2077673;28;20336;-76
2024/01/27 01:16:28;;;;;;;;;;;;;;;;;;2080873;28;19967;-77
2024/01/27 01:17:49;;;;;;;;;;;;;;;;;;2085263;28;19916;-77
2024/01/27 01:19:10;;;;;;;;;;;;;;;;;;2082370;28;20366;-76
2024/01/27 01:20:32;;;;;;;;;;;;;;;;;;2081941;28;19928;-77
2024/01/27 01:21:53;;;;;;;;;;;;;;;;;;2073822;28;19914;-76
2024/01/27 01:23:13;;;;;;;;;;;;;;;;;;2077027;28;19909;-76
2024/01/27 01:24:34;;;;;;;;;;;;;;;;;;2078633;28;20347;-76
2024/01/27 01:25:55;;;;;;;;;;;;;;;;;;2071155;28;19921;-76
2024/01/27 01:27:18;;;;;;;;;;;;;;;;;;2077868;28;19913;-76
2024/01/27 01:28:39;;;;;;;;;;;;;;;;;;2087981;28;19912;-76
2024/01/27 01:30:00;;;;;;;;;;;;;;;;;;2078087;28;19943;-76
2024/01/27 01:31:21;;;;;;;;;;;;;;;;;;2078971;28;19917;-77
2024/01/27 01:32:41;;;;;;;;;;;;;;;;;;2087317;28;19916;-76
2024/01/27 01:34:02;;;;;;;;;;;;;;;;;;2098191;28;20314;-76
2024/01/27 01:35:24;;;;;;;;;;;;;;;;;;2084561;28;19910;-77
2024/01/27 01:36:45;;;;;;;;;;;;;;;;;;2081068;28;20361;-76
2024/01/27 01:38:06;;;;;;;;;;;;;;;;;;2085429;28;20380;-77
2024/01/27 01:39:26;;;;;;;;;;;;;;;;;;2085551;28;19913;-77
2024/01/27 01:40:47;;;;;;;;;;;;;;;;;;2080793;28;19920;-76
2024/01/27 01:42:08;;;;;;;;;;;;;;;;;;2089876;28;19916;-77
2024/01/27 01:43:28;;;;;;;;;;;;;;;;;;2081005;28;19920;-76
2024/01/27 01:44:49;;;;;;;;;;;;;;;;;;2074885;28;19921;-77
2024/01/27 01:46:10;;;;;;;;;;;;;;;;;;2070892;28;19928;-77
2024/01/27 01:47:30;;;;;;;;;;;;;;;;;;2084829;28;19913;-76
2024/01/27 01:48:51;;;;;;;;;;;;;;;;;;2087654;28;19908;-76
2024/01/27 01:50:12;;;;;;;;;;;;;;;;;;2088999;28;19916;-76
2024/01/27 01:51:32;;;;;;;;;;;;;;;;;;2079896;28;19932;-76
2024/01/27 01:52:53;;;;;;;;;;;;;;;;;;2080800;28;19909;-77
2024/01/27 01:54:16;;;;;;;;;;;;;;;;;;2075190;28;20399;-76
2024/01/27 01:55:36;;;;;;;;;;;;;;;;;;2076462;28;19913;-76
2024/01/27 01:56:57;;;;;;;;;;;;;;;;;;2073786;28;20198;-76
2024/01/27 01:58:18;;;;;;;;;;;;;;;;;;2087177;28;19909;-76
2024/01/27 01:59:40;;;;;;;;;;;;;;;;;;2089255;28;19913;-76
2024/01/27 02:01:01;;;;;;;;;;;;;;;;;;2084126;28;20264;-76
2024/01/27 02:02:22;;;;;;;;;;;;;;;;;;2080336;28;19909;-76
2024/01/27 02:03:42;;;;;;;;;;;;;;;;;;2074722;28;19913;-76
2024/01/27 02:05:03;;;;;;;;;;;;;;;;;;2086948;28;19909;-76
2024/01/27 02:06:24;;;;;;;;;;;;;;;;;;2073388;28;19924;-76
2024/01/27 02:07:44;;;;;;;;;;;;;;;;;;2079114;28;19913;-79
2024/01/27 02:09:05;;;;;;;;;;;;;;;;;;2075919;28;19913;-79
2024/01/27 02:10:26;;;;;;;;;;;;;;;;;;2079089;28;20747;-79
2024/01/27 02:11:47;;;;;;;;;;;;;;;;;;2078787;28;19914;-79
2024/01/27 02:13:08;;;;;;;;;;;;;;;;;;2082607;28;19909;-79
2024/01/27 02:14:29;;;;;;;;;;;;;;;;;;2089270;28;20297;-79
2024/01/27 02:15:49;;;;;;;;;;;;;;;;;;2079592;28;20258;-79
2024/01/27 02:17:10;;;;;;;;;;;;;;;;;;2080212;28;19913;-79
2024/01/27 02:18:31;;;;;;;;;;;;;;;;;;2085865;28;19916;-79
2024/01/27 02:19:51;;;;;;;;;;;;;;;;;;2088046;28;19920;-78
2024/01/27 02:21:12;;;;;;;;;;;;;;;;;;2078550;28;19921;-79
2024/01/27 02:22:33;;;;;;;;;;;;;;;;;;2086774;28;19909;-79
2024/01/27 02:23:54;;;;;;;;;;;;;;;;;;2087706;28;19916;-79
2024/01/27 02:25:14;;;;;;;;;;;;;;;;;;2087371;28;19916;-79
2024/01/27 02:26:35;;;;;;;;;;;;;;;;;;2070978;28;20322;-79
2024/01/27 02:27:56;;;;;;;;;;;;;;;;;;2074661;28;19913;-79
2024/01/27 02:29:17;;;;;;;;;;;;;;;;;;2087096;28;19919;-79
2024/01/27 02:30:37;;;;;;;;;;;;;;;;;;2079231;28;19913;-79
2024/01/27 02:31:58;;;;;;;;;;;;;;;;;;2079127;28;19916;-79
2024/01/27 02:33:19;;;;;;;;;;;;;;;;;;2080390;28;19913;-79
2024/01/27 02:34:40;;;;;;;;;;;;;;;;;;2077396;28;20270;-79
2024/01/27 02:36:00;;;;;;;;;;;;;;;;;;2086874;28;19908;-79
2024/01/27 02:37:21;;;;;;;;;;;;;;;;;;2088274;28;20272;-79
2024/01/27 02:38:42;;;;;;;;;;;;;;;;;;2079536;28;19921;-79
2024/01/27 02:40:03;;;;;;;;;;;;;;;;;;2079503;28;19908;-79
2024/01/27 02:41:23;;;;;;;;;;;;;;;;;;2081510;28;19940;-79
2024/01/27 02:42:44;;;;;;;;;;;;;;;;;;2080985;28;19909;-79
2024/01/27 02:44:05;;;;;;;;;;;;;;;;;;2083652;28;19913;-79
2024/01/27 02:45:25;;;;;;;;;;;;;;;;;;2083993;28;19912;-79
2024/01/27 02:46:46;;;;;;;;;;;;;;;;;;2079488;28;19910;-79
2024/01/27 02:48:07;;;;;;;;;;;;;;;;;;2086854;28;19913;-79
2024/01/27 02:49:27;;;;;;;;;;;;;;;;;;2073346;28;19914;-79
2024/01/27 02:50:48;;;;;;;;;;;;;;;;;;2077063;28;19917;-79
2024/01/27 02:52:09;;;;;;;;;;;;;;;;;;2073401;28;20324;-79
2024/01/27 02:53:30;;;;;;;;;;;;;;;;;;2072028;28;19926;-79
2024/01/27 02:54:51;;;;;;;;;;;;;;;;;;2077833;28;19913;-79
2024/01/27 02:56:11;;;;;;;;;;;;;;;;;;2089299;28;19913;-79
2024/01/27 02:57:32;;;;;;;;;;;;;;;;;;2082131;28;19912;-79
2024/01/27 02:58:53;;;;;;;;;;;;;;;;;;2081836;28;19916;-79
2024/01/27 03:00:13;;;;;;;;;;;;;;;;;;2073516;28;19913;-79
2024/01/27 03:01:34;;;;;;;;;;;;;;;;;;2083263;28;19921;-79
2024/01/27 03:02:58;;;;;;;;;;;;;;;;;;2079260;28;20262;-79
2024/01/27 03:04:18;;;;;;;;;;;;;;;;;;2078888;28;19909;-79
2024/01/27 03:05:39;;;;;;;;;;;;;;;;;;2085758;28;19921;-79
2024/01/27 03:07:00;;;;;;;;;;;;;;;;;;2088590;28;19928;-79
2024/01/27 03:08:21;;;;;;;;;;;;;;;;;;2081032;28;19913;-79
2024/01/27 03:09:41;;;;;;;;;;;;;;;;;;2086899;28;19908;-79
2024/01/27 03:11:03;;;;;;;;;;;;;;;;;;2087481;28;19924;-79
2024/01/27 03:12:23;;;;;;;;;;;;;;;;;;2076432;28;19914;-79
2024/01/27 03:13:45;;;;;;;;;;;;;;;;;;2071804;28;19909;-79
2024/01/27 03:15:05;;;;;;;;;;;;;;;;;;2070058;28;19917;-79
2024/01/27 03:16:26;;;;;;;;;;;;;;;;;;2072625;28;19921;-80
2024/01/27 03:17:47;;;;;;;;;;;;;;;;;;2081225;28;19913;-77
2024/01/27 03:19:08;;;;;;;;;;;;;;;;;;2079354;28;20323;-76
2024/01/27 03:20:30;;;;;;;;;;;;;;;;;;2081305;28;19913;-76
2024/01/27 03:21:51;;;;;;;;;;;;;;;;;;2082830;28;19951;-76
2024/01/27 03:23:12;;;;;;;;;;;;;;;;;;2085047;28;19920;-77
2024/01/27 03:24:32;;;;;;;;;;;;;;;;;;2076983;28;19924;-76
2024/01/27 03:25:54;;;;;;;;;;;;;;;;;;2086062;28;19923;-76
2024/01/27 03:27:15;;;;;;;;;;;;;;;;;;2071521;28;19920;-76
2024/01/27 03:28:35;;;;;;;;;;;;;;;;;;2069376;28;20377;-76
2024/01/27 03:29:56;;;;;;;;;;;;;;;;;;2071984;28;20302;-76
2024/01/27 03:31:17;;;;;;;;;;;;;;;;;;2075140;28;19917;-76
2024/01/27 03:32:37;;;;;;;;;;;;;;;;;;2078798;28;19909;-76
2024/01/27 03:33:58;;;;;;;;;;;;;;;;;;2079969;28;19941;-76
2024/01/27 03:35:19;;;;;;;;;;;;;;;;;;2076166;28;19982;-76
2024/01/27 03:36:40;;;;;;;;;;;;;;;;;;2075563;28;19925;-76
2024/01/27 03:38:00;;;;;;;;;;;;;;;;;;2074975;28;19913;-76
2024/01/27 03:39:21;;;;;;;;;;;;;;;;;;2078789;28;19913;-76
2024/01/27 03:40:42;;;;;;;;;;;;;;;;;;2075361;28;19921;-76
2024/01/27 03:42:02;;;;;;;;;;;;;;;;;;2085594;28;19999;-75
2024/01/27 03:43:23;;;;;;;;;;;;;;;;;;2074652;28;19910;-76
2024/01/27 03:44:44;;;;;;;;;;;;;;;;;;2082677;28;20286;-76
2024/01/27 03:46:04;;;;;;;;;;;;;;;;;;2072380;28;19914;-76
2024/01/27 03:47:25;;;;;;;;;;;;;;;;;;2079309;28;21591;-76
2024/01/27 03:48:46;;;;;;;;;;;;;;;;;;2071776;28;19920;-76
2024/01/27 03:50:07;;;;;;;;;;;;;;;;;;2074798;28;19920;-75
2024/01/27 03:51:28;;;;;;;;;;;;;;;;;;2078965;28;19921;-77
2024/01/27 03:52:49;;;;;;;;;;;;;;;;;;2073760;28;19986;-77
2024/01/27 03:54:10;;;;;;;;;;;;;;;;;;2085979;28;19932;-75
2024/01/27 03:55:31;;;;;;;;;;;;;;;;;;2071338;28;19909;-77
2024/01/27 03:56:52;;;;;;;;;;;;;;;;;;2077973;28;19940;-75
2024/01/27 03:58:12;;;;;;;;;;;;;;;;;;2072525;28;20377;-77
2024/01/27 03:59:33;;;;;;;;;;;;;;;;;;2081262;28;19936;-76
2024/01/27 04:00:54;;;;;;;;;;;;;;;;;;2082562;28;19944;-77
2024/01/27 04:02:14;;;;;;;;;;;;;;;;;;2072537;28;19909;-76
2024/01/27 04:03:35;;;;;;;;;;;;;;;;;;2077599;28;19913;-76
2024/01/27 04:04:56;;;;;;;;;;;;;;;;;;2071656;28;20257;-75
2024/01/27 04:06:17;;;;;;;;;;;;;;;;;;2077469;28;19909;-76
2024/01/27 04:07:37;;;;;;;;;;;;;;;;;;2076211;28;20312;-76
2024/01/27 04:08:58;;;;;;;;;;;;;;;;;;2071717;28;19914;-75
2024/01/27 04:10:19;;;;;;;;;;;;;;;;;;2076950;28;19909;-77
2024/01/27 04:11:39;;;;;;;;;;;;;;;;;;2087292;28;19924;-76
2024/01/27 04:13:00;;;;;;;;;;;;;;;;;;2088431;28;19913;-75
2024/01/27 04:14:21;;;;;;;;;;;;;;;;;;2072893;28;19910;-76
2024/01/27 04:15:41;;;;;;;;;;;;;;;;;;2071463;28;19913;-76
2024/01/27 04:17:02;;;;;;;;;;;;;;;;;;2068567;28;20392;-76
2024/01/27 04:18:23;;;;;;;;;;;;;;;;;;2067924;28;19916;-76
2024/01/27 04:19:43;;;;;;;;;;;;;;;;;;2077153;28;19916;-76
2024/01/27 04:21:04;;;;;;;;;;;;;;;;;;2073258;28;20024;-76
2024/01/27 04:22:25;;;;;;;;;;;;;;;;;;2084357;28;19909;-76
2024/01/27 04:23:46;;;;;;;;;;;;;;;;;;2082567;28;19909;-75
2024/01/27 04:25:06;;;;;;;;;;;;;;;;;;2080725;28;19917;-76
2024/01/27 04:26:27;;;;;;;;;;;;;;;;;;2085582;28;19909;-75
2024/01/27 04:27:48;;;;;;;;;;;;;;;;;;2088034;28;19913;-76
2024/01/27 04:29:08;;;;;;;;;;;;;;;;;;2086718;28;19913;-77
2024/01/27 04:30:29;;;;;;;;;;;;;;;;;;2073017;28;20247;-76
2024/01/27 04:31:50;;;;;;;;;;;;;;;;;;2072811;28;19944;-76
2024/01/27 04:33:10;;;;;;;;;;;;;;;;;;2084971;28;19912;-75
2024/01/27 04:34:31;;;;;;;;;;;;;;;;;;2087277;28;19932;-76
2024/01/27 04:35:52;;;;;;;;;;;;;;;;;;2080368;28;19917;-77
2024/01/27 04:37:12;;;;;;;;;;;;;;;;;;2072795;28;19959;-76
2024/01/27 04:38:33;;;;;;;;;;;;;;;;;;2073581;28;20055;-76
2024/01/27 04:39:54;;;;;;;;;;;;;;;;;;2075118;28;19920;-76
2024/01/27 04:41:15;;;;;;;;;;;;;;;;;;2074491;28;19921;-76
2024/01/27 04:42:35;;;;;;;;;;;;;;;;;;2079167;28;20336;-76
2024/01/27 04:43:56;;;;;;;;;;;;;;;;;;2088035;28;19916;-76
2024/01/27 04:45:17;;;;;;;;;;;;;;;;;;2079468;28;19975;-76
2024/01/27 04:46:38;;;;;;;;;;;;;;;;;;2080573;28;19916;-77
2024/01/27 04:48:00;;;;;;;;;;;;;;;;;;2078729;28;19913;-76
2024/01/27 04:49:21;;;;;;;;;;;;;;;;;;2078575;28;19917;-75
2024/01/27 04:50:42;;;;;;;;;;;;;;;;;;2080004;28;19909;-76
2024/01/27 04:52:03;;;;;;;;;;;;;;;;;;2079010;28;19917;-76
2024/01/27 04:53:23;;;;;;;;;;;;;;;;;;2080180;28;19918;-76
2024/01/27 04:54:44;;;;;;;;;;;;;;;;;;2078260;28;20457;-76
2024/01/27 04:56:07;;;;;;;;;;;;;;;;;;2082424;28;19917;-76
2024/01/27 04:57:28;;;;;;;;;;;;;;;;;;2073058;28;19918;-76
2024/01/27 04:58:49;;;;;;;;;;;;;;;;;;2070261;28;19913;-76
2024/01/27 05:00:11;;;;;;;;;;;;;;;;;;2083470;28;20015;-76
2024/01/27 05:01:33;;;;;;;;;;;;;;;;;;2085568;28;20380;-76
2024/01/27 05:02:53;;;;;;;;;;;;;;;;;;2088425;28;19909;-76
2024/01/27 05:04:14;;;;;;;;;;;;;;;;;;2080817;28;19913;-76
2024/01/27 05:05:35;;;;;;;;;;;;;;;;;;2081520;28;19909;-76
2024/01/27 05:06:55;;;;;;;;;;;;;;;;;;2083786;28;20363;-76
2024/01/27 05:08:16;;;;;;;;;;;;;;;;;;2088605;28;19932;-76
2024/01/27 05:09:37;;;;;;;;;;;;;;;;;;2090293;28;19908;-76
2024/01/27 05:10:57;;;;;;;;;;;;;;;;;;2081660;28;19913;-77
2024/01/27 05:12:18;;;;;;;;;;;;;;;;;;2077818;28;19944;-76
2024/01/27 05:13:39;;;;;;;;;;;;;;;;;;2074480;28;20393;-76
2024/01/27 05:14:59;;;;;;;;;;;;;;;;;;2087152;28;19913;-77
2024/01/27 05:16:20;;;;;;;;;;;;;;;;;;2096624;28;19945;-76
2024/01/27 05:17:41;;;;;;;;;;;;;;;;;;2083624;28;19985;-76
2024/01/27 05:19:02;;;;;;;;;;;;;;;;;;2078062;28;19916;-77
2024/01/27 05:20:22;;;;;;;;;;;;;;;;;;2089804;28;19931;-76
2024/01/27 05:21:43;;;;;;;;;;;;;;;;;;2089033;28;20388;-76
2024/01/27 05:23:04;;;;;;;;;;;;;;;;;;2074337;28;19910;-76
2024/01/27 05:24:24;;;;;;;;;;;;;;;;;;2086104;28;20319;-76
2024/01/27 05:25:45;;;;;;;;;;;;;;;;;;2087827;28;20019;-76
2024/01/27 05:27:06;;;;;;;;;;;;;;;;;;2073473;28;19956;-76
2024/01/27 05:28:26;;;;;;;;;;;;;;;;;;2083020;28;19924;-77
2024/01/27 05:29:47;;;;;;;;;;;;;;;;;;2079436;28;19909;-76
2024/01/27 05:31:11;;;;;;;;;;;;;;;;;;2074923;28;19914;-76
2024/01/27 05:32:31;;;;;;;;;;;;;;;;;;2087846;28;19917;-77
2024/01/27 05:33:52;;;;;;;;;;;;;;;;;;2098178;28;19916;-76
2024/01/27 05:35:13;;;;;;;;;;;;;;;;;;2090499;28;19920;-77
2024/01/27 05:36:33;;;;;;;;;;;;;;;;;;2081067;28;19978;-77
2024/01/27 05:37:54;;;;;;;;;;;;;;;;;;2073769;28;19917;-77
2024/01/27 05:39:15;;;;;;;;;;;;;;;;;;2082976;28;19913;-77
2024/01/27 05:40:35;;;;;;;;;;;;;;;;;;2089786;28;19920;-77
2024/01/27 05:41:56;;;;;;;;;;;;;;;;;;2079069;28;20317;-77
2024/01/27 05:43:17;;;;;;;;;;;;;;;;;;2078323;28;19921;-76
2024/01/27 05:44:40;;;;;;;;;;;;;;;;;;2076910;28;19909;-76
2024/01/27 05:46:01;;;;;;;;;;;;;;;;;;2078528;28;19909;-76
2024/01/27 05:47:21;;;;;;;;;;;;;;;;;;2077705;28;19913;-77
2024/01/27 05:48:42;;;;;;;;;;;;;;;;;;2078540;28;19913;-76
2024/01/27 05:50:04;;;;;;;;;;;;;;;;;;2080925;28;19975;-80
2024/01/27 05:51:25;;;;;;;;;;;;;;;;;;2071614;28;19909;-80
2024/01/27 05:52:45;;;;;;;;;;;;;;;;;;2072503;28;19940;-80
2024/01/27 05:54:06;;;;;;;;;;;;;;;;;;2084195;28;20016;-80
2024/01/27 05:55:27;;;;;;;;;;;;;;;;;;2073757;28;19916;-81
2024/01/27 05:56:47;;;;;;;;;;;;;;;;;;2081594;28;19916;-80
2024/01/27 05:58:08;;;;;;;;;;;;;;;;;;2087313;28;20324;-80
2024/01/27 05:59:29;;;;;;;;;;;;;;;;;;2080319;28;19913;-80
2024/01/27 06:00:49;;;;;;;;;;;;;;;;;;2081046;28;19909;-80
2024/01/27 06:02:10;;;;;;;;;;;;;;;;;;2077594;28;20035;-80
2024/01/27 06:03:31;;;;;;;;;;;;;;;;;;2076911;28;19960;-80
2024/01/27 06:04:51;;;;;;;;;;;;;;;;;;2081188;28;20015;-79
2024/01/27 06:06:12;;;;;;;;;;;;;;;;;;2079862;28;19914;-79
2024/01/27 06:07:33;;;;;;;;;;;;;;;;;;2077962;28;20388;-80
2024/01/27 06:08:54;;;;;;;;;;;;;;;;;;2082687;28;19920;-79
2024/01/27 06:10:14;;;;;;;;;;;;;;;;;;2082556;28;19929;-80
2024/01/27 06:11:35;;;;;;;;;;;;;;;;;;2074624;28;19977;-80
2024/01/27 06:12:56;;;;;;;;;;;;;;;;;;2080960;28;19940;-79
2024/01/27 06:14:17;;;;;;;;;;;;;;;;;;2079696;28;19909;-80
2024/01/27 06:15:38;;;;;;;;;;;;;;;;;;2073291;28;20273;-80
2024/01/27 06:16:59;;;;;;;;;;;;;;;;;;2072974;28;19925;-80
2024/01/27 06:18:20;;;;;;;;;;;;;;;;;;2079701;28;19917;-79
2024/01/27 06:19:41;;;;;;;;;;;;;;;;;;2086135;28;19928;-79
2024/01/27 06:21:01;;;;;;;;;;;;;;;;;;2081747;28;19916;-79
2024/01/27 06:22:22;;;;;;;;;;;;;;;;;;2076004;28;20662;-77
2024/01/27 06:23:43;;;;;;;;;;;;;;;;;;2086692;28;19909;-79
2024/01/27 06:25:03;;;;;;;;;;;;;;;;;;2082875;28;19913;-79
2024/01/27 06:26:24;;;;;;;;;;;;;;;;;;2081061;28;19909;-79
2024/01/27 06:27:45;;;;;;;;;;;;;;;;;;2081637;28;19909;-79
2024/01/27 06:29:05;;;;;;;;;;;;;;;;;;2085423;28;19917;-80
2024/01/27 06:30:26;;;;;;;;;;;;;;;;;;2086304;28;20015;-79
2024/01/27 06:31:47;;;;;;;;;;;;;;;;;;2072392;28;19925;-80
2024/01/27 06:33:07;;;;;;;;;;;;;;;;;;2071268;28;19914;-80
2024/01/27 06:34:28;;;;;;;;;;;;;;;;;;2078863;28;20013;-80
2024/01/27 06:35:49;;;;;;;;;;;;;;;;;;2079928;28;19913;-79
2024/01/27 06:37:10;;;;;;;;;;;;;;;;;;2089841;28;19909;-80
2024/01/27 06:38:31;;;;;;;;;;;;;;;;;;2081660;28;19913;-81
2024/01/27 06:39:52;;;;;;;;;;;;;;;;;;2071064;28;19910;-81
2024/01/27 06:41:13;;;;;;;;;;;;;;;;;;2082404;28;19913;-81
2024/01/27 06:42:33;;;;;;;;;;;;;;;;;;2081200;28;19917;-80
2024/01/27 06:43:54;;;;;;;;;;;;;;;;;;2070257;28;19969;-81
2024/01/27 06:45:15;;;;;;;;;;;;;;;;;;2070506;28;19916;-79
2024/01/27 06:46:35;;;;;;;;;;;;;;;;;;2069830;28;19909;-80
2024/01/27 06:47:56;;;;;;;;;;;;;;;;;;2074627;28;20404;-80
2024/01/27 06:49:17;;;;;;;;;;;;;;;;;;2070310;28;19910;-80
2024/01/27 06:50:37;;;;;;;;;;;;;;;;;;2075317;28;20391;-80
2024/01/27 06:51:58;;;;;;;;;;;;;;;;;;2082678;28;20268;-80
2024/01/27 06:53:19;;;;;;;;;;;;;;;;;;2080353;28;19921;-80
2024/01/27 06:54:43;;;;;;;;;;;;;;;;;;2087020;28;19983;-80
2024/01/27 06:56:04;;;;;;;;;;;;;;;;;;2080118;28;20000;-81
2024/01/27 06:57:25;;;;;;;;;;;;;;;;;;2078918;28;19940;-81
2024/01/27 06:58:46;;;;;;;;;;;;;;;;;;2077761;28;19913;-80
2024/01/27 07:00:07;;;;;;;;;;;;;;;;;;2078928;28;19956;-80
2024/01/27 07:01:27;;;;;;;;;;;;;;;;;;2071777;28;19916;-78
2024/01/27 07:02:48;;;;;;;;;;;;;;;;;;2081055;28;19929;-78
2024/01/27 07:04:09;;;;;;;;;;;;;;;;;;2081386;28;19921;-78
2024/01/27 07:05:29;;;;;;;;;;;;;;;;;;2083545;28;20361;-79
2024/01/27 07:06:50;;;;;;;;;;;;;;;;;;2089071;28;19912;-78
2024/01/27 07:08:11;;;;;;;;;;;;;;;;;;2089357;28;19912;-78
2024/01/27 07:09:32;;;;;;;;;;;;;;;;;;2073336;28;19952;-78
2024/01/27 07:10:52;;;;;;;;;;;;;;;;;;2079064;28;19921;-75
2024/01/27 07:12:13;;;;;;;;;;;;;;;;;;2080264;28;19972;-75
2024/01/27 07:13:34;;;;;;;;;;;;;;;;;;2084738;28;19912;-75
2024/01/27 07:14:55;;;;;;;;;;;;;;;;;;2088603;28;19924;-75
2024/01/27 07:16:15;;;;;;;;;;;;;;;;;;2096314;28;19932;-76
2024/01/27 07:17:36;;;;;;;;;;;;;;;;;;2091657;28;19919;-76
2024/01/27 07:18:57;;;;;;;;;;;;;;;;;;2088110;28;19909;-75
2024/01/27 07:20:17;;;;;;;;;;;;;;;;;;2087996;28;19913;-75
2024/01/27 07:21:38;;;;;;;;;;;;;;;;;;2086862;28;19984;-76
2024/01/27 07:22:59;;;;;;;;;;;;;;;;;;2088247;28;20323;-75
2024/01/27 07:24:19;;;;;;;;;;;;;;;;;;2079891;28;19920;-76
2024/01/27 07:25:40;;;;;;;;;;;;;;;;;;2075589;28;19918;-76
2024/01/27 07:27:01;;;;;;;;;;;;;;;;;;2079200;28;19916;-75
2024/01/27 07:28:22;;;;;;;;;;;;;;;;;;2086192;28;19917;-75
2024/01/27 07:29:42;;;;;;;;;;;;;;;;;;2081128;28;19910;-76
2024/01/27 07:31:03;;;;;;;;;;;;;;;;;;2080648;28;20418;-75
2024/01/27 07:32:26;;;;;;;;;;;;;;;;;;2079775;28;19920;-75
2024/01/27 07:33:46;;;;;;;;;;;;;;;;;;2074200;28;19924;-75
2024/01/27 07:35:07;;;;;;;;;;;;;;;;;;2082430;28;20122;-76
2024/01/27 07:36:32;;;;;;;;;;;;;;;;;;2084026;28;19963;-75
2024/01/27 07:37:53;;;;;;;;;;;;;;;;;;2082380;28;20024;-75
2024/01/27 07:39:14;;;;;;;;;;;;;;;;;;2083765;28;20258;-75
2024/01/27 07:40:35;;;;;;;;;;;;;;;;;;2085165;28;19939;-75
2024/01/27 07:41:55;;;;;;;;;;;;;;;;;;2079755;28;19909;-76
2024/01/27 07:43:16;;;;;;;;;;;;;;;;;;2078471;28;20182;-75
2024/01/27 07:44:37;;;;;;;;;;;;;;;;;;2081886;28;19971;-75
2024/01/27 07:45:58;;;;;;;;;;;;;;;;;;2088445;28;19931;-75
2024/01/27 07:47:18;;;;;;;;;;;;;;;;;;2079798;28;19913;-75
2024/01/27 07:48:39;;;;;;;;;;;;;;;;;;2083345;28;19924;-76
2024/01/27 07:50:00;;;;;;;;;;;;;;;;;;2087874;28;20261;-75
2024/01/27 07:51:20;;;;;;;;;;;;;;;;;;2079947;28;19913;-75
2024/01/27 07:52:41;;;;;;;;;;;;;;;;;;2070929;28;19932;-75
2024/01/27 07:54:02;;;;;;;;;;;;;;;;;;2070355;28;19921;-75
2024/01/27 07:55:23;;;;;;;;;;;;;;;;;;2080183;28;19917;-75
2024/01/27 07:56:44;;;;;;;;;;;;;;;;;;2076858;28;19910;-76
2024/01/27 07:58:05;;;;;;;;;;;;;;;;;;2065747;28;19909;-75
2024/01/27 07:59:26;;;;;;;;;;;;;;;;;;2071593;28;19932;-75
2024/01/27 08:00:47;;;;;;;;;;;;;;;;;;2077234;28;19909;-75
2024/01/27 08:02:07;;;;;;;;;;;;;;;;;;2079471;28;19913;-76
2024/01/27 08:03:28;;;;;;;;;;;;;;;;;;2067740;28;19917;-76
2024/01/27 08:04:49;;;;;;;;;;;;;;;;;;2075069;28;19921;-76
2024/01/27 08:06:11;;;;;;;;;;;;;;;;;;2080720;28;19913;-76
2024/01/27 08:07:32;;;;;;;;;;;;;;;;;;2067631;28;20020;-76
2024/01/27 08:08:52;;;;;;;;;;;;;;;;;;2062317;28;20317;-75
2024/01/27 08:10:13;;;;;;;;;;;;;;;;;;2073174;28;19913;-76
2024/01/27 08:11:34;;;;;;;;;;;;;;;;;;2063802;28;20370;-75
2024/01/27 08:12:54;;;;;;;;;;;;;;;;;;2069015;28;20177;-75
2024/01/27 08:14:15;;;;;;;;;;;;;;;;;;2066424;28;19960;-75
2024/01/27 08:15:36;;;;;;;;;;;;;;;;;;2061276;28;19914;-75
2024/01/27 08:16:57;;;;;;;;;;;;;;;;;;2065488;28;19909;-76
2024/01/27 08:18:17;;;;;;;;;;;;;;;;;;2069589;28;20318;-77
2024/01/27 08:19:38;;;;;;;;;;;;;;;;;;2066512;28;19913;-75
2024/01/27 08:20:59;;;;;;;;;;;;;;;;;;2074357;28;19913;-77
2024/01/27 08:22:20;;;;;;;;;;;;;;;;;;2076046;28;19996;-77
2024/01/27 08:23:40;;;;;;;;;;;;;;;;;;2064312;28;19956;-77
2024/01/27 08:25:01;;;;;;;;;;;;;;;;;;2075829;28;19913;-77
2024/01/27 08:26:22;;;;;;;;;;;;;;;;;;2069974;28;19929;-77
2024/01/27 08:27:42;;;;;;;;;;;;;;;;;;2075124;28;19963;-77
2024/01/27 08:29:03;;;;;;;;;;;;;;;;;;2077074;28;19925;-76
2024/01/27 08:30:24;;;;;;;;;;;;;;;;;;2080223;28;20288;-77
2024/01/27 08:31:44;;;;;;;;;;;;;;;;;;2078481;28;19909;-77
2024/01/27 08:33:05;;;;;;;;;;;;;;;;;;2079062;28;20365;-77
2024/01/27 08:34:26;;;;;;;;;;;;;;;;;;2081063;28;19920;-77
2024/01/27 08:35:48;;;;;;;;;;;;;;;;;;2070852;28;19909;-77
2024/01/27 08:37:08;;;;;;;;;;;;;;;;;;2077172;28;20265;-78
2024/01/27 08:38:29;;;;;;;;;;;;;;;;;;2069370;28;19945;-78
2024/01/27 08:39:51;;;;;;;;;;;;;;;;;;2076917;28;19959;-77
2024/01/27 08:41:12;;;;;;;;;;;;;;;;;;2071329;28;19910;-77
2024/01/27 08:42:32;;;;;;;;;;;;;;;;;;2076536;28;19944;-77
2024/01/27 08:43:53;;;;;;;;;;;;;;;;;;2080172;28;19913;-78
2024/01/27 08:45:14;;;;;;;;;;;;;;;;;;2075495;28;19936;-77
2024/01/27 08:46:34;;;;;;;;;;;;;;;;;;2071695;28;19913;-75
2024/01/27 08:47:55;;;;;;;;;;;;;;;;;;2077332;28;19909;-77
2024/01/27 08:49:16;;;;;;;;;;;;;;;;;;2073122;28;19913;-77
2024/01/27 08:50:36;;;;;;;;;;;;;;;;;;2071643;28;19920;-77
2024/01/27 08:51:57;;;;;;;;;;;;;;;;;;2063165;28;19910;-76
2024/01/27 08:53:18;;;;;;;;;;;;;;;;;;2068766;28;19925;-77
2024/01/27 08:54:38;;;;;;;;;;;;;;;;;;2085173;28;19913;-76
2024/01/27 08:55:59;;;;;;;;;;;;;;;;;;2088324;28;20257;-77
2024/01/27 08:57:20;;;;;;;;;;;;;;;;;;2088138;28;19909;-77
2024/01/27 08:58:40;;;;;;;;;;;;;;;;;;2078626;28;19913;-77
2024/01/27 09:00:03;;;;;;;;;;;;;;;;;;2086019;28;19913;-77
2024/01/27 09:01:24;;;;;;;;;;;;;;;;;;2083621;28;20368;-77
2024/01/27 09:02:44;;;;;;;;;;;;;;;;;;2076152;28;19929;-77
2024/01/27 09:04:05;;;;;;;;;;;;;;;;;;2085507;28;19991;-77
2024/01/27 09:05:27;;;;;;;;;;;;;;;;;;2078558;28;20289;-74
2024/01/27 09:06:48;;;;;;;;;;;;;;;;;;2083339;28;19935;-74
2024/01/27 09:08:09;;;;;;;;;;;;;;;;;;2080050;28;19984;-76
2024/01/27 09:09:30;;;;;;;;;;;;;;;;;;2084487;28;19916;-75
2024/01/27 09:10:50;;;;;;;;;;;;;;;;;;2085242;28;20345;-75
2024/01/27 09:12:11;;;;;;;;;;;;;;;;;;2076344;28;19917;-75